sensor_id;sensor_type;location;lat;lon;timestamp;temperature;humidity
74416;SHT31;62850;42.428;25.618;2023-05-13T00:00:27;9.86;66.63
74416;SHT31;62850;42.428;25.618;2023-05-13T00:02:53;9.82;66.96
74416;SHT31;62850;42.428;25.618;2023-05-13T00:05:18;9.78;67.01
74416;SHT31;62850;42.428;25.618;2023-05-13T00:07:44;9.78;67.04
74416;SHT31;62850;42.428;25.618;2023-05-13T00:10:09;9.71;67.67
74416;SHT31;62850;42.428;25.618;2023-05-13T00:12:36;9.61;67.94
74416;SHT31;62850;42.428;25.618;2023-05-13T00:15:02;9.63;67.34
74416;SHT31;62850;42.428;25.618;2023-05-13T00:17:27;9.62;67.94
74416;SHT31;62850;42.428;25.618;2023-05-13T00:19:53;9.58;68.11
74416;SHT31;62850;42.428;25.618;2023-05-13T00:22:18;9.54;68.57
74416;SHT31;62850;42.428;25.618;2023-05-13T00:24:44;9.48;68.96
74416;SHT31;62850;42.428;25.618;2023-05-13T00:27:10;9.44;69.11
74416;SHT31;62850;42.428;25.618;2023-05-13T00:29:39;9.42;69.57
74416;SHT31;62850;42.428;25.618;2023-05-13T00:32:05;9.44;69.48
74416;SHT31;62850;42.428;25.618;2023-05-13T00:34:31;9.47;69.14
74416;SHT31;62850;42.428;25.618;2023-05-13T00:36:57;9.40;69.83
74416;SHT31;62850;42.428;25.618;2023-05-13T00:39:22;9.38;69.72
74416;SHT31;62850;42.428;25.618;2023-05-13T00:41:48;9.32;69.93
74416;SHT31;62850;42.428;25.618;2023-05-13T00:44:14;9.32;70.26
74416;SHT31;62850;42.428;25.618;2023-05-13T00:46:40;9.27;70.59
74416;SHT31;62850;42.428;25.618;2023-05-13T00:49:06;9.27;70.67
74416;SHT31;62850;42.428;25.618;2023-05-13T00:51:32;9.20;70.90
74416;SHT31;62850;42.428;25.618;2023-05-13T00:53:58;9.24;70.80
74416;SHT31;62850;42.428;25.618;2023-05-13T00:56:25;9.28;70.58
74416;SHT31;62850;42.428;25.618;2023-05-13T00:58:51;9.32;70.60
74416;SHT31;62850;42.428;25.618;2023-05-13T01:04:30;9.38;70.62
74416;SHT31;62850;42.428;25.618;2023-05-13T01:07:13;9.32;70.94
74416;SHT31;62850;42.428;25.618;2023-05-13T01:12:34;9.37;70.64
74416;SHT31;62850;42.428;25.618;2023-05-13T01:15:06;9.38;70.44
74416;SHT31;62850;42.428;25.618;2023-05-13T01:17:48;9.44;70.66
74416;SHT31;62850;42.428;25.618;2023-05-13T01:20:17;9.44;70.73
74416;SHT31;62850;42.428;25.618;2023-05-13T01:22:45;9.41;70.92
74416;SHT31;62850;42.428;25.618;2023-05-13T01:25:10;9.34;71.15
74416;SHT31;62850;42.428;25.618;2023-05-13T01:27:36;9.24;71.49
74416;SHT31;62850;42.428;25.618;2023-05-13T01:30:02;9.27;71.33
74416;SHT31;62850;42.428;25.618;2023-05-13T01:32:27;9.32;71.11
74416;SHT31;62850;42.428;25.618;2023-05-13T01:34:54;9.37;71.08
74416;SHT31;62850;42.428;25.618;2023-05-13T01:37:20;9.34;70.94
74416;SHT31;62850;42.428;25.618;2023-05-13T01:39:46;9.41;70.49
74416;SHT31;62850;42.428;25.618;2023-05-13T01:42:12;9.49;69.79
74416;SHT31;62850;42.428;25.618;2023-05-13T01:44:37;9.51;69.72
74416;SHT31;62850;42.428;25.618;2023-05-13T01:47:03;9.45;69.70
74416;SHT31;62850;42.428;25.618;2023-05-13T01:49:28;9.47;69.34
74416;SHT31;62850;42.428;25.618;2023-05-13T01:51:54;9.51;69.14
74416;SHT31;62850;42.428;25.618;2023-05-13T01:54:20;9.58;69.27
74416;SHT31;62850;42.428;25.618;2023-05-13T01:56:45;9.47;69.04
74416;SHT31;62850;42.428;25.618;2023-05-13T01:59:11;9.47;68.66
74416;SHT31;62850;42.428;25.618;2023-05-13T02:01:36;9.40;68.21
74416;SHT31;62850;42.428;25.618;2023-05-13T02:04:02;9.34;67.37
74416;SHT31;62850;42.428;25.618;2023-05-13T02:06:28;9.41;66.75
74416;SHT31;62850;42.428;25.618;2023-05-13T02:08:53;9.45;66.29
74416;SHT31;62850;42.428;25.618;2023-05-13T02:11:19;9.47;66.11
74416;SHT31;62850;42.428;25.618;2023-05-13T02:13:44;9.41;66.45
74416;SHT31;62850;42.428;25.618;2023-05-13T02:16:15;9.45;65.91
74416;SHT31;62850;42.428;25.618;2023-05-13T02:18:41;9.31;66.18
74416;SHT31;62850;42.428;25.618;2023-05-13T02:21:07;9.28;67.15
74416;SHT31;62850;42.428;25.618;2023-05-13T02:23:32;9.30;67.08
74416;SHT31;62850;42.428;25.618;2023-05-13T02:25:57;9.32;66.18
74416;SHT31;62850;42.428;25.618;2023-05-13T02:28:23;9.28;66.42
74416;SHT31;62850;42.428;25.618;2023-05-13T02:30:48;9.35;65.95
74416;SHT31;62850;42.428;25.618;2023-05-13T02:33:14;9.42;65.24
74416;SHT31;62850;42.428;25.618;2023-05-13T02:35:39;9.35;66.51
74416;SHT31;62850;42.428;25.618;2023-05-13T02:38:05;9.37;65.63
74416;SHT31;62850;42.428;25.618;2023-05-13T02:40:33;9.37;65.52
74416;SHT31;62850;42.428;25.618;2023-05-13T02:42:58;9.34;65.71
74416;SHT31;62850;42.428;25.618;2023-05-13T02:45:24;9.24;65.96
74416;SHT31;62850;42.428;25.618;2023-05-13T02:47:49;9.28;65.89
74416;SHT31;62850;42.428;25.618;2023-05-13T02:50:15;9.24;65.99
74416;SHT31;62850;42.428;25.618;2023-05-13T02:52:40;9.24;64.52
74416;SHT31;62850;42.428;25.618;2023-05-13T02:55:06;9.21;65.64
74416;SHT31;62850;42.428;25.618;2023-05-13T02:57:32;9.31;65.79
74416;SHT31;62850;42.428;25.618;2023-05-13T02:59:58;9.19;66.21
74416;SHT31;62850;42.428;25.618;2023-05-13T03:02:23;9.19;66.20
74416;SHT31;62850;42.428;25.618;2023-05-13T03:04:49;9.09;66.29
74416;SHT31;62850;42.428;25.618;2023-05-13T03:07:14;9.01;66.47
74416;SHT31;62850;42.428;25.618;2023-05-13T03:09:40;8.96;66.95
74416;SHT31;62850;42.428;25.618;2023-05-13T03:12:07;8.83;67.24
74416;SHT31;62850;42.428;25.618;2023-05-13T03:14:33;8.76;67.70
74416;SHT31;62850;42.428;25.618;2023-05-13T03:17:01;8.70;67.98
74416;SHT31;62850;42.428;25.618;2023-05-13T03:19:27;8.59;67.72
74416;SHT31;62850;42.428;25.618;2023-05-13T03:21:52;8.65;68.13
74416;SHT31;62850;42.428;25.618;2023-05-13T03:24:18;8.62;68.38
74416;SHT31;62850;42.428;25.618;2023-05-13T03:26:44;8.63;68.33
74416;SHT31;62850;42.428;25.618;2023-05-13T03:29:09;8.60;68.17
74416;SHT31;62850;42.428;25.618;2023-05-13T03:31:36;8.73;67.76
74416;SHT31;62850;42.428;25.618;2023-05-13T03:34:01;8.83;66.60
74416;SHT31;62850;42.428;25.618;2023-05-13T03:36:26;8.79;67.72
74416;SHT31;62850;42.428;25.618;2023-05-13T03:38:52;8.79;67.33
74416;SHT31;62850;42.428;25.618;2023-05-13T03:41:17;8.89;67.43
74416;SHT31;62850;42.428;25.618;2023-05-13T03:43:43;8.87;67.39
74416;SHT31;62850;42.428;25.618;2023-05-13T03:46:09;8.90;67.86
74416;SHT31;62850;42.428;25.618;2023-05-13T03:48:35;8.94;67.65
74416;SHT31;62850;42.428;25.618;2023-05-13T03:51:01;8.99;67.99
74416;SHT31;62850;42.428;25.618;2023-05-13T03:53:27;9.00;67.98
74416;SHT31;62850;42.428;25.618;2023-05-13T03:55:52;9.09;67.08
74416;SHT31;62850;42.428;25.618;2023-05-13T03:58:18;9.19;67.54
74416;SHT31;62850;42.428;25.618;2023-05-13T04:00:46;9.23;67.36
74416;SHT31;62850;42.428;25.618;2023-05-13T04:03:12;9.32;67.32
74416;SHT31;62850;42.428;25.618;2023-05-13T04:05:37;9.41;66.79
74416;SHT31;62850;42.428;25.618;2023-05-13T04:08:03;9.57;66.56
74416;SHT31;62850;42.428;25.618;2023-05-13T04:10:28;9.62;66.40
74416;SHT31;62850;42.428;25.618;2023-05-13T04:12:54;9.62;66.97
74416;SHT31;62850;42.428;25.618;2023-05-13T04:15:19;9.69;66.71
74416;SHT31;62850;42.428;25.618;2023-05-13T04:17:45;9.78;66.20
74416;SHT31;62850;42.428;25.618;2023-05-13T04:20:12;9.86;66.19
74416;SHT31;62850;42.428;25.618;2023-05-13T04:22:37;9.89;66.16
74416;SHT31;62850;42.428;25.618;2023-05-13T04:25:03;9.92;66.27
74416;SHT31;62850;42.428;25.618;2023-05-13T04:27:29;9.96;66.03
74416;SHT31;62850;42.428;25.618;2023-05-13T04:29:54;10.09;65.39
74416;SHT31;62850;42.428;25.618;2023-05-13T04:32:19;10.20;64.86
74416;SHT31;62850;42.428;25.618;2023-05-13T04:34:48;10.33;63.75
74416;SHT31;62850;42.428;25.618;2023-05-13T04:37:14;10.40;64.23
74416;SHT31;62850;42.428;25.618;2023-05-13T04:39:40;10.54;63.72
74416;SHT31;62850;42.428;25.618;2023-05-13T04:42:06;10.68;63.83
74416;SHT31;62850;42.428;25.618;2023-05-13T04:44:32;10.77;63.12
74416;SHT31;62850;42.428;25.618;2023-05-13T04:46:58;10.91;62.55
74416;SHT31;62850;42.428;25.618;2023-05-13T04:49:23;10.97;62.07
74416;SHT31;62850;42.428;25.618;2023-05-13T04:51:49;11.08;61.68
74416;SHT31;62850;42.428;25.618;2023-05-13T04:54:14;11.16;61.09
74416;SHT31;62850;42.428;25.618;2023-05-13T04:56:40;11.23;60.88
74416;SHT31;62850;42.428;25.618;2023-05-13T04:59:07;11.29;59.93
74416;SHT31;62850;42.428;25.618;2023-05-13T05:01:33;11.40;59.28
74416;SHT31;62850;42.428;25.618;2023-05-13T05:03:58;11.44;59.04
74416;SHT31;62850;42.428;25.618;2023-05-13T05:06:24;11.42;59.49
74416;SHT31;62850;42.428;25.618;2023-05-13T05:08:49;11.37;61.05
74416;SHT31;62850;42.428;25.618;2023-05-13T05:11:15;11.47;62.02
74416;SHT31;62850;42.428;25.618;2023-05-13T05:13:40;11.53;62.24
74416;SHT31;62850;42.428;25.618;2023-05-13T05:16:06;11.59;62.79
74416;SHT31;62850;42.428;25.618;2023-05-13T05:18:32;11.66;63.29
74416;SHT31;62850;42.428;25.618;2023-05-13T05:21:00;11.62;63.33
74416;SHT31;62850;42.428;25.618;2023-05-13T05:23:26;11.71;63.33
74416;SHT31;62850;42.428;25.618;2023-05-13T05:25:51;11.71;63.48
74416;SHT31;62850;42.428;25.618;2023-05-13T05:28:17;11.74;63.36
74416;SHT31;62850;42.428;25.618;2023-05-13T05:30:42;11.78;63.64
74416;SHT31;62850;42.428;25.618;2023-05-13T05:33:08;11.74;63.60
74416;SHT31;62850;42.428;25.618;2023-05-13T05:35:33;11.84;63.09
74416;SHT31;62850;42.428;25.618;2023-05-13T05:38:06;11.86;63.08
74416;SHT31;62850;42.428;25.618;2023-05-13T05:40:32;11.81;63.23
74416;SHT31;62850;42.428;25.618;2023-05-13T05:42:58;11.88;63.19
74416;SHT31;62850;42.428;25.618;2023-05-13T05:45:24;11.88;63.02
74416;SHT31;62850;42.428;25.618;2023-05-13T05:47:49;11.90;62.70
74416;SHT31;62850;42.428;25.618;2023-05-13T05:50:15;12.01;62.51
74416;SHT31;62850;42.428;25.618;2023-05-13T05:52:40;12.10;62.39
74416;SHT31;62850;42.428;25.618;2023-05-13T05:55:06;12.21;61.81
74416;SHT31;62850;42.428;25.618;2023-05-13T05:57:32;12.32;61.80
74416;SHT31;62850;42.428;25.618;2023-05-13T05:59:57;12.46;61.57
74416;SHT31;62850;42.428;25.618;2023-05-13T06:02:23;12.53;61.46
74416;SHT31;62850;42.428;25.618;2023-05-13T06:04:48;12.55;61.06
74416;SHT31;62850;42.428;25.618;2023-05-13T06:07:14;12.59;60.86
74416;SHT31;62850;42.428;25.618;2023-05-13T06:09:39;12.70;60.72
74416;SHT31;62850;42.428;25.618;2023-05-13T06:12:05;12.82;60.27
74416;SHT31;62850;42.428;25.618;2023-05-13T06:14:30;12.99;59.86
74416;SHT31;62850;42.428;25.618;2023-05-13T06:16:56;13.06;59.92
74416;SHT31;62850;42.428;25.618;2023-05-13T06:19:21;13.15;59.62
74416;SHT31;62850;42.428;25.618;2023-05-13T06:21:47;13.18;59.42
74416;SHT31;62850;42.428;25.618;2023-05-13T06:24:12;13.17;58.61
74416;SHT31;62850;42.428;25.618;2023-05-13T06:26:38;13.25;58.37
74416;SHT31;62850;42.428;25.618;2023-05-13T06:29:04;13.44;57.77
74416;SHT31;62850;42.428;25.618;2023-05-13T06:31:29;13.61;57.91
74416;SHT31;62850;42.428;25.618;2023-05-13T06:33:55;13.72;57.75
74416;SHT31;62850;42.428;25.618;2023-05-13T06:36:20;13.86;56.56
74416;SHT31;62850;42.428;25.618;2023-05-13T06:38:45;13.86;54.89
74416;SHT31;62850;42.428;25.618;2023-05-13T06:41:11;13.99;54.93
74416;SHT31;62850;42.428;25.618;2023-05-13T06:43:36;14.09;54.69
74416;SHT31;62850;42.428;25.618;2023-05-13T06:46:03;14.05;54.80
74416;SHT31;62850;42.428;25.618;2023-05-13T06:48:28;14.16;54.61
74416;SHT31;62850;42.428;25.618;2023-05-13T06:50:53;14.26;52.94
74416;SHT31;62850;42.428;25.618;2023-05-13T06:53:19;14.19;50.91
74416;SHT31;62850;42.428;25.618;2023-05-13T06:55:44;14.38;51.09
74416;SHT31;62850;42.428;25.618;2023-05-13T06:58:10;14.51;51.76
74416;SHT31;62850;42.428;25.618;2023-05-13T07:00:37;14.63;52.06
74416;SHT31;62850;42.428;25.618;2023-05-13T07:03:04;14.72;54.28
74416;SHT31;62850;42.428;25.618;2023-05-13T07:05:31;14.77;52.84
74416;SHT31;62850;42.428;25.618;2023-05-13T07:07:56;14.92;51.95
74416;SHT31;62850;42.428;25.618;2023-05-13T07:10:22;15.03;50.79
74416;SHT31;62850;42.428;25.618;2023-05-13T07:12:47;15.12;50.99
74416;SHT31;62850;42.428;25.618;2023-05-13T07:15:12;15.25;50.53
74416;SHT31;62850;42.428;25.618;2023-05-13T07:17:38;15.29;49.58
74416;SHT31;62850;42.428;25.618;2023-05-13T07:20:04;15.23;46.73
74416;SHT31;62850;42.428;25.618;2023-05-13T07:22:30;15.39;47.14
74416;SHT31;62850;42.428;25.618;2023-05-13T07:24:56;15.44;45.81
74416;SHT31;62850;42.428;25.618;2023-05-13T07:27:21;15.47;45.39
74416;SHT31;62850;42.428;25.618;2023-05-13T07:29:47;15.66;47.03
74416;SHT31;62850;42.428;25.618;2023-05-13T07:32:12;15.87;48.74
74416;SHT31;62850;42.428;25.618;2023-05-13T07:34:38;16.05;46.09
74416;SHT31;62850;42.428;25.618;2023-05-13T07:37:03;16.21;44.12
74416;SHT31;62850;42.428;25.618;2023-05-13T07:39:29;16.45;44.14
74416;SHT31;62850;42.428;25.618;2023-05-13T07:41:54;16.73;44.19
74416;SHT31;62850;42.428;25.618;2023-05-13T07:44:20;17.02;44.46
74416;SHT31;62850;42.428;25.618;2023-05-13T07:46:46;17.34;43.81
74416;SHT31;62850;42.428;25.618;2023-05-13T07:49:12;17.68;42.50
74416;SHT31;62850;42.428;25.618;2023-05-13T07:51:38;18.05;41.31
74416;SHT31;62850;42.428;25.618;2023-05-13T07:54:03;18.40;40.74
74416;SHT31;62850;42.428;25.618;2023-05-13T07:56:29;18.47;40.98
74416;SHT31;62850;42.428;25.618;2023-05-13T07:58:55;18.54;41.27
74416;SHT31;62850;42.428;25.618;2023-05-13T08:01:20;18.72;38.98
74416;SHT31;62850;42.428;25.618;2023-05-13T08:03:46;18.85;40.35
74416;SHT31;62850;42.428;25.618;2023-05-13T08:06:11;19.14;37.91
74416;SHT31;62850;42.428;25.618;2023-05-13T08:08:37;19.43;35.89
74416;SHT31;62850;42.428;25.618;2023-05-13T08:11:02;19.59;34.48
74416;SHT31;62850;42.428;25.618;2023-05-13T08:13:28;19.49;32.99
74416;SHT31;62850;42.428;25.618;2023-05-13T08:15:53;19.50;31.94
74416;SHT31;62850;42.428;25.618;2023-05-13T08:18:19;19.37;33.13
74416;SHT31;62850;42.428;25.618;2023-05-13T08:20:44;19.62;33.63
74416;SHT31;62850;42.428;25.618;2023-05-13T08:23:10;19.69;34.68
74416;SHT31;62850;42.428;25.618;2023-05-13T08:25:35;20.03;36.31
74416;SHT31;62850;42.428;25.618;2023-05-13T08:28:01;20.22;33.48
74416;SHT31;62850;42.428;25.618;2023-05-13T08:30:27;20.25;35.79
74416;SHT31;62850;42.428;25.618;2023-05-13T08:32:53;20.01;33.50
74416;SHT31;62850;42.428;25.618;2023-05-13T08:35:18;19.93;34.47
74416;SHT31;62850;42.428;25.618;2023-05-13T08:37:44;19.81;34.41
74416;SHT31;62850;42.428;25.618;2023-05-13T08:40:10;19.87;36.02
74416;SHT31;62850;42.428;25.618;2023-05-13T08:42:42;19.75;33.68
74416;SHT31;62850;42.428;25.618;2023-05-13T08:45:11;19.47;34.47
74416;SHT31;62850;42.428;25.618;2023-05-13T08:47:54;19.47;36.72
74416;SHT31;62850;42.428;25.618;2023-05-13T08:50:20;19.74;36.21
74416;SHT31;62850;42.428;25.618;2023-05-13T08:52:48;20.05;34.86
74416;SHT31;62850;42.428;25.618;2023-05-13T08:55:14;20.31;34.26
74416;SHT31;62850;42.428;25.618;2023-05-13T08:57:40;20.26;32.81
74416;SHT31;62850;42.428;25.618;2023-05-13T09:00:07;20.35;34.61
74416;SHT31;62850;42.428;25.618;2023-05-13T09:02:33;20.45;32.00
74416;SHT31;62850;42.428;25.618;2023-05-13T09:05:02;20.59;31.87
74416;SHT31;62850;42.428;25.618;2023-05-13T09:07:29;20.66;32.74
74416;SHT31;62850;42.428;25.618;2023-05-13T09:09:55;20.62;33.07
74416;SHT31;62850;42.428;25.618;2023-05-13T09:15:22;20.49;29.33
74416;SHT31;62850;42.428;25.618;2023-05-13T09:17:49;20.49;27.09
74416;SHT31;62850;42.428;25.618;2023-05-13T09:20:17;20.65;28.05
74416;SHT31;62850;42.428;25.618;2023-05-13T09:22:57;20.62;32.80
74416;SHT31;62850;42.428;25.618;2023-05-13T09:25:23;20.56;31.53
74416;SHT31;62850;42.428;25.618;2023-05-13T09:27:56;20.62;31.48
74416;SHT31;62850;42.428;25.618;2023-05-13T09:30:24;20.35;30.83
74416;SHT31;62850;42.428;25.618;2023-05-13T09:33:14;20.72;31.62
74416;SHT31;62850;42.428;25.618;2023-05-13T09:35:42;20.87;31.71
74416;SHT31;62850;42.428;25.618;2023-05-13T09:38:15;20.73;31.11
74416;SHT31;62850;42.428;25.618;2023-05-13T09:40:58;21.03;32.29
74416;SHT31;62850;42.428;25.618;2023-05-13T09:43:30;20.99;31.30
74416;SHT31;62850;42.428;25.618;2023-05-13T09:46:01;21.03;31.09
74416;SHT31;62850;42.428;25.618;2023-05-13T09:48:28;21.20;30.17
74416;SHT31;62850;42.428;25.618;2023-05-13T09:50:55;21.34;29.20
74416;SHT31;62850;42.428;25.618;2023-05-13T09:53:25;21.31;29.01
74416;SHT31;62850;42.428;25.618;2023-05-13T09:55:53;21.23;29.77
74416;SHT31;62850;42.428;25.618;2023-05-13T09:58:19;21.28;30.02
74416;SHT31;62850;42.428;25.618;2023-05-13T10:00:46;21.24;31.04
74416;SHT31;62850;42.428;25.618;2023-05-13T10:03:13;21.57;30.35
74416;SHT31;62850;42.428;25.618;2023-05-13T10:05:39;21.62;29.53
74416;SHT31;62850;42.428;25.618;2023-05-13T10:08:10;21.61;29.40
74416;SHT31;62850;42.428;25.618;2023-05-13T10:10:36;21.77;29.13
74416;SHT31;62850;42.428;25.618;2023-05-13T10:13:07;21.81;28.91
74416;SHT31;62850;42.428;25.618;2023-05-13T10:15:35;21.90;29.06
74416;SHT31;62850;42.428;25.618;2023-05-13T10:18:01;21.99;28.84
74416;SHT31;62850;42.428;25.618;2023-05-13T10:20:27;22.14;28.41
74416;SHT31;62850;42.428;25.618;2023-05-13T10:22:53;22.03;29.08
74416;SHT31;62850;42.428;25.618;2023-05-13T10:25:19;22.29;28.50
74416;SHT31;62850;42.428;25.618;2023-05-13T10:27:46;22.24;29.01
74416;SHT31;62850;42.428;25.618;2023-05-13T10:30:12;22.33;28.96
74416;SHT31;62850;42.428;25.618;2023-05-13T10:32:38;22.41;29.67
74416;SHT31;62850;42.428;25.618;2023-05-13T10:35:10;22.58;29.77
74416;SHT31;62850;42.428;25.618;2023-05-13T10:43:14;22.97;26.82
74416;SHT31;62850;42.428;25.618;2023-05-13T10:45:49;22.92;26.87
74416;SHT31;62850;42.428;25.618;2023-05-13T10:48:16;22.87;26.68
74416;SHT31;62850;42.428;25.618;2023-05-13T10:51:02;22.68;26.36
74416;SHT31;62850;42.428;25.618;2023-05-13T10:53:51;22.74;27.14
74416;SHT31;62850;42.428;25.618;2023-05-13T10:56:35;22.97;27.35
74416;SHT31;62850;42.428;25.618;2023-05-13T10:59:04;22.84;26.87
74416;SHT31;62850;42.428;25.618;2023-05-13T11:01:36;22.99;26.79
74416;SHT31;62850;42.428;25.618;2023-05-13T11:04:13;23.05;27.36
74416;SHT31;62850;42.428;25.618;2023-05-13T11:06:40;23.29;27.05
74416;SHT31;62850;42.428;25.618;2023-05-13T11:09:11;23.36;27.13
74416;SHT31;62850;42.428;25.618;2023-05-13T11:11:37;23.35;27.76
74416;SHT31;62850;42.428;25.618;2023-05-13T11:16:35;22.98;29.45
74416;SHT31;62850;42.428;25.618;2023-05-13T11:19:02;23.16;31.33
74416;SHT31;62850;42.428;25.618;2023-05-13T11:21:32;23.43;29.61
74416;SHT31;62850;42.428;25.618;2023-05-13T11:24:03;23.30;28.58
74416;SHT31;62850;42.428;25.618;2023-05-13T11:29:14;23.26;27.08
74416;SHT31;62850;42.428;25.618;2023-05-13T11:31:51;23.30;30.66
74416;SHT31;62850;42.428;25.618;2023-05-13T11:34:18;23.50;30.52
74416;SHT31;62850;42.428;25.618;2023-05-13T11:36:49;23.42;28.23
74416;SHT31;62850;42.428;25.618;2023-05-13T11:39:15;23.43;28.01
74416;SHT31;62850;42.428;25.618;2023-05-13T11:41:43;23.43;29.01
74416;SHT31;62850;42.428;25.618;2023-05-13T11:44:11;23.33;28.61
74416;SHT31;62850;42.428;25.618;2023-05-13T11:46:36;23.26;29.21
74416;SHT31;62850;42.428;25.618;2023-05-13T11:49:02;23.76;28.14
74416;SHT31;62850;42.428;25.618;2023-05-13T11:51:28;23.80;27.30
74416;SHT31;62850;42.428;25.618;2023-05-13T11:54:01;23.77;32.18
74416;SHT31;62850;42.428;25.618;2023-05-13T11:56:27;23.90;27.05
74416;SHT31;62850;42.428;25.618;2023-05-13T11:58:54;23.92;27.89
74416;SHT31;62850;42.428;25.618;2023-05-13T12:01:20;23.98;29.41
74416;SHT31;62850;42.428;25.618;2023-05-13T12:03:45;23.93;28.61
74416;SHT31;62850;42.428;25.618;2023-05-13T12:06:12;23.92;28.85
74416;SHT31;62850;42.428;25.618;2023-05-13T12:08:44;24.21;28.66
74416;SHT31;62850;42.428;25.618;2023-05-13T12:11:11;24.04;29.37
74416;SHT31;62850;42.428;25.618;2023-05-13T12:13:40;23.83;29.91
74416;SHT31;62850;42.428;25.618;2023-05-13T12:16:06;23.88;29.76
74416;SHT31;62850;42.428;25.618;2023-05-13T12:18:31;24.08;28.95
74416;SHT31;62850;42.428;25.618;2023-05-13T12:20:58;24.29;28.17
74416;SHT31;62850;42.428;25.618;2023-05-13T12:23:23;24.17;29.20
74416;SHT31;62850;42.428;25.618;2023-05-13T12:25:49;24.11;30.15
74416;SHT31;62850;42.428;25.618;2023-05-13T12:28:25;24.25;28.46
74416;SHT31;62850;42.428;25.618;2023-05-13T12:30:59;24.41;28.75
74416;SHT31;62850;42.428;25.618;2023-05-13T12:35:54;24.28;29.56
74416;SHT31;62850;42.428;25.618;2023-05-13T12:38:38;24.49;28.10
74416;SHT31;62850;42.428;25.618;2023-05-13T12:41:10;24.04;28.30
74416;SHT31;62850;42.428;25.618;2023-05-13T12:43:37;24.20;28.37
74416;SHT31;62850;42.428;25.618;2023-05-13T12:46:05;24.21;28.26
74416;SHT31;62850;42.428;25.618;2023-05-13T12:48:31;24.21;28.71
74416;SHT31;62850;42.428;25.618;2023-05-13T12:50:57;24.48;29.26
74416;SHT31;62850;42.428;25.618;2023-05-13T12:53:23;24.25;29.87
74416;SHT31;62850;42.428;25.618;2023-05-13T12:55:49;24.47;29.09
74416;SHT31;62850;42.428;25.618;2023-05-13T12:58:15;24.58;29.61
74416;SHT31;62850;42.428;25.618;2023-05-13T13:00:40;24.54;28.92
74416;SHT31;62850;42.428;25.618;2023-05-13T13:03:06;24.79;28.97
74416;SHT31;62850;42.428;25.618;2023-05-13T13:05:31;24.59;29.18
74416;SHT31;62850;42.428;25.618;2023-05-13T13:07:57;24.51;28.49
74416;SHT31;62850;42.428;25.618;2023-05-13T13:10:25;24.48;29.50
74416;SHT31;62850;42.428;25.618;2023-05-13T13:12:50;24.69;29.73
74416;SHT31;62850;42.428;25.618;2023-05-13T13:15:16;24.79;28.89
74416;SHT31;62850;42.428;25.618;2023-05-13T13:17:42;24.75;29.06
74416;SHT31;62850;42.428;25.618;2023-05-13T13:20:07;24.34;30.27
74416;SHT31;62850;42.428;25.618;2023-05-13T13:22:33;23.90;30.06
74416;SHT31;62850;42.428;25.618;2023-05-13T13:25:02;23.32;30.85
74416;SHT31;62850;42.428;25.618;2023-05-13T13:27:28;22.81;30.56
74416;SHT31;62850;42.428;25.618;2023-05-13T13:29:53;22.72;29.78
74416;SHT31;62850;42.428;25.618;2023-05-13T13:32:19;22.63;30.44
74416;SHT31;62850;42.428;25.618;2023-05-13T13:34:44;22.83;30.98
74416;SHT31;62850;42.428;25.618;2023-05-13T13:37:10;22.88;31.58
74416;SHT31;62850;42.428;25.618;2023-05-13T13:39:35;22.75;30.03
74416;SHT31;62850;42.428;25.618;2023-05-13T13:42:01;22.44;32.03
74416;SHT31;62850;42.428;25.618;2023-05-13T13:44:29;22.35;31.94
74416;SHT31;62850;42.428;25.618;2023-05-13T13:46:55;22.16;31.45
74416;SHT31;62850;42.428;25.618;2023-05-13T13:49:20;22.37;31.44
74416;SHT31;62850;42.428;25.618;2023-05-13T13:51:47;22.61;31.52
74416;SHT31;62850;42.428;25.618;2023-05-13T13:54:12;22.70;30.17
74416;SHT31;62850;42.428;25.618;2023-05-13T13:56:38;22.90;29.93
74416;SHT31;62850;42.428;25.618;2023-05-13T13:59:04;23.32;29.90
74416;SHT31;62850;42.428;25.618;2023-05-13T14:01:29;23.62;30.25
74416;SHT31;62850;42.428;25.618;2023-05-13T14:04:12;23.97;28.44
74416;SHT31;62850;42.428;25.618;2023-05-13T14:06:38;24.10;28.51
74416;SHT31;62850;42.428;25.618;2023-05-13T14:09:04;24.24;28.76
74416;SHT31;62850;42.428;25.618;2023-05-13T14:11:30;24.42;28.72
74416;SHT31;62850;42.428;25.618;2023-05-13T14:13:56;24.59;27.63
74416;SHT31;62850;42.428;25.618;2023-05-13T14:16:22;24.75;27.94
74416;SHT31;62850;42.428;25.618;2023-05-13T14:18:48;24.72;28.03
74416;SHT31;62850;42.428;25.618;2023-05-13T14:21:15;24.85;27.83
74416;SHT31;62850;42.428;25.618;2023-05-13T14:23:41;24.95;27.17
74416;SHT31;62850;42.428;25.618;2023-05-13T14:26:07;25.09;27.76
74416;SHT31;62850;42.428;25.618;2023-05-13T14:28:33;25.12;27.49
74416;SHT31;62850;42.428;25.618;2023-05-13T14:30:59;25.12;27.70
74416;SHT31;62850;42.428;25.618;2023-05-13T14:33:25;25.00;27.80
74416;SHT31;62850;42.428;25.618;2023-05-13T14:35:50;25.10;28.32
74416;SHT31;62850;42.428;25.618;2023-05-13T14:38:17;25.19;28.37
74416;SHT31;62850;42.428;25.618;2023-05-13T14:40:42;25.26;27.72
74416;SHT31;62850;42.428;25.618;2023-05-13T14:43:08;25.20;28.41
74416;SHT31;62850;42.428;25.618;2023-05-13T14:45:34;25.14;27.38
74416;SHT31;62850;42.428;25.618;2023-05-13T14:48:00;25.13;27.76
74416;SHT31;62850;42.428;25.618;2023-05-13T14:50:25;24.89;28.31
74416;SHT31;62850;42.428;25.618;2023-05-13T14:52:51;24.83;28.43
74416;SHT31;62850;42.428;25.618;2023-05-13T14:55:16;24.77;28.58
74416;SHT31;62850;42.428;25.618;2023-05-13T14:57:42;24.77;28.01
74416;SHT31;62850;42.428;25.618;2023-05-13T15:00:08;24.72;29.11
74416;SHT31;62850;42.428;25.618;2023-05-13T15:02:34;24.75;28.80
74416;SHT31;62850;42.428;25.618;2023-05-13T15:04:59;24.58;28.38
74416;SHT31;62850;42.428;25.618;2023-05-13T15:07:25;24.58;28.59
74416;SHT31;62850;42.428;25.618;2023-05-13T15:09:51;24.44;28.50
74416;SHT31;62850;42.428;25.618;2023-05-13T15:12:16;24.36;28.78
74416;SHT31;62850;42.428;25.618;2023-05-13T15:14:42;24.31;28.93
74416;SHT31;62850;42.428;25.618;2023-05-13T15:17:07;24.17;28.17
74416;SHT31;62850;42.428;25.618;2023-05-13T15:19:37;23.97;29.01
74416;SHT31;62850;42.428;25.618;2023-05-13T15:22:03;23.86;29.09
74416;SHT31;62850;42.428;25.618;2023-05-13T15:24:29;23.83;29.52
74416;SHT31;62850;42.428;25.618;2023-05-13T15:26:55;23.76;29.53
74416;SHT31;62850;42.428;25.618;2023-05-13T15:29:20;23.69;29.77
74416;SHT31;62850;42.428;25.618;2023-05-13T15:31:48;23.57;29.75
74416;SHT31;62850;42.428;25.618;2023-05-13T15:34:14;23.46;30.05
74416;SHT31;62850;42.428;25.618;2023-05-13T15:36:40;23.36;30.02
74416;SHT31;62850;42.428;25.618;2023-05-13T15:39:05;23.29;30.33